LEMG/AGP METAR and TAF weather

Enter ICAO airport designator
Station Type Date Time Source
LEMG METAR 2022/11/26 09:30 UTC NOAA

LEMG 260930Z 31003KT CAVOK 16/09 Q1030 BECMG 13008KT


Station Type Date Time Source
LEMG Decoded METAR 2022/11/26 09:30 UTC NOAA

Malaga / Aeropuerto, Spain (LEMG) 36-40N 004-29W 7M
Nov 26, 2022 - 04:30 AM EST / 2022.11.26 0930 UTC
Wind: from the NW (310 degrees) at 3 MPH (3 KT):0
Visibility: greater than 7 mile(s):0
Temperature: 60 F (16 C)
Dew Point: 48 F (9 C)
Relative Humidity: 63%
Pressure (altimeter): 30.42 in. Hg (1030 hPa)
ob: LEMG 260930Z 31003KT CAVOK 16/09 Q1030 BECMG 13008KT
cycle: 9

Station Type Date Time Source
LEMG TAF 2022/11/26 06:27 UTC NOAA

TAF LEMG 260500Z 2606/2706 29006KT 9999 FEW020 TX20/2612Z TN09/2705Z
BECMG 2609/2611 13008KT
BECMG 2618/2620 VRB03KT

Example: see airport list